Terminal Aerodrome Forecast
Issued by NWS

Current Version | Previous Version | Text Only | Print | Product List | Glossary On
Versions: 1 2 3 4 5 6 7 8 9 10 11 12 13 14 15 16 17 18 19 20 21 22 23 24 25 26
000
FTUS46 KSGX 011100
TAFSAN
TAF
KSAN 011123Z 0112/0218 17005KT P6SM BKN015
     FM011600 22007KT P6SM SCT015
     FM012200 27009KT P6SM SKC
     FM020200 VRB04KT P6SM SCT010
     FM020600 VRB03KT P6SM OVC009
     FM021400 VRB04KT P6SM SCT010=

USA.gov is the U.S. government's official web portal to all federal, state and local government web resources and services.